createdAt,value
2019-04-03T00:07:36.719Z,12.2
2019-04-03T00:22:52.370Z,12.1
2019-04-03T00:38:06.504Z,11.8
2019-04-03T00:53:21.268Z,11.6
2019-04-03T01:08:35.348Z,11.4
2019-04-03T01:23:50.625Z,11.4
2019-04-03T01:39:05.201Z,11.2
2019-04-03T01:54:19.825Z,11.2
2019-04-03T02:09:26.696Z,11
2019-04-03T02:24:48.823Z,10.9
2019-04-03T02:40:03.281Z,10.7
2019-04-03T02:55:17.756Z,10.6
2019-04-03T03:10:32.021Z,10.5
2019-04-03T03:25:45.277Z,10.4
2019-04-03T03:41:00.542Z,10.3
2019-04-03T03:56:15.171Z,10.3
2019-04-03T04:11:30.730Z,10.3
2019-04-03T04:26:35.406Z,10.2
2019-04-03T04:41:57.483Z,10.2
2019-04-03T04:57:11.911Z,10.2
2019-04-03T05:12:25.907Z,9.9
2019-04-03T05:27:40.004Z,10
2019-04-03T05:42:53.522Z,10.2
2019-04-03T05:58:08.427Z,10.4
2019-04-03T06:13:22.790Z,10.6
2019-04-03T06:28:37.172Z,11.8
2019-04-03T06:43:48.945Z,11.5
2019-04-03T06:59:07.135Z,11.9
2019-04-03T07:14:21.959Z,12.5
2019-04-03T07:29:37.179Z,13.2
2019-04-03T07:44:52.740Z,13.9
2019-04-03T08:00:08.900Z,14.6
2019-04-03T08:15:24.864Z,15.3
2019-04-03T08:30:41.159Z,15.7
2019-04-03T08:45:56.204Z,15.9
2019-04-03T09:01:14.238Z,16
2019-04-03T09:16:31.764Z,16.2
2019-04-03T09:31:49.077Z,16.7
2019-04-03T09:46:56.611Z,17.2
2019-04-03T10:02:21.930Z,17.6
2019-04-03T10:17:39.679Z,18.8
2019-04-03T10:32:59.494Z,18.8
2019-04-03T10:48:15.778Z,19.3
2019-04-03T11:03:30.123Z,19.4
2019-04-03T11:18:59.410Z,19.8
2019-04-03T11:34:13.646Z,19.8
2019-04-03T11:49:32.451Z,20
2019-04-03T12:04:34.831Z,20.8
2019-04-03T12:20:09.145Z,21
2019-04-03T12:35:34.265Z,21
2019-04-03T12:50:56.844Z,21
2019-04-03T13:06:16.904Z,21
2019-04-03T13:21:39.774Z,21.3
2019-04-03T13:36:44.963Z,21.4
2019-04-03T13:52:17.035Z,21.1
2019-04-03T14:07:41.467Z,21
2019-04-03T14:22:58.713Z,21
2019-04-03T14:38:18.362Z,21.2
2019-04-03T14:53:23.242Z,21.7
2019-04-03T15:08:56.024Z,21.9
2019-04-03T15:24:19.946Z,21.5
2019-04-03T15:39:40.507Z,21.4
2019-04-03T15:55:03.581Z,21.1
2019-04-03T16:10:22.670Z,20.8
2019-04-03T16:25:33.686Z,20.5
2019-04-03T16:41:01.342Z,20.5
2019-04-03T16:56:20.676Z,19.9
2019-04-03T17:11:42.990Z,19.3
2019-04-03T17:26:59.452Z,18.6
2019-04-03T17:42:08.566Z,18.2
2019-04-03T17:57:33.429Z,17.7
2019-04-03T18:12:52.286Z,17.3
2019-04-03T18:28:07.459Z,16.8
2019-04-03T18:43:24.161Z,16.4
2019-04-03T18:58:37.760Z,16.1
2019-04-03T19:13:57.249Z,15.8
2019-04-03T19:29:13.503Z,15.5
2019-04-03T19:44:29.819Z,15.4
2019-04-03T19:59:35.199Z,15.2
2019-04-03T20:15:02.517Z,15.3
2019-04-03T20:30:18.374Z,14.9
2019-04-03T20:45:34.337Z,14.6
2019-04-03T21:01:05.641Z,14.7
2019-04-03T21:17:02.784Z,14.5
2019-04-03T21:32:19.326Z,14
2019-04-03T21:47:34.934Z,13.7
2019-04-03T22:02:50.368Z,13.5
2019-04-03T22:17:57.198Z,13.2
2019-04-03T22:33:21.123Z,13
2019-04-03T22:48:36.327Z,12.8
2019-04-03T23:03:51.452Z,12.5
2019-04-03T23:19:06.499Z,12.4
2019-04-03T23:34:19.647Z,12.3
2019-04-03T23:49:36.427Z,12.1
